createdAt,value
2018-01-25T00:00:01.612Z,11.90
2018-01-25T00:02:29.047Z,11.90
2018-01-25T00:04:56.496Z,11.90
2018-01-25T00:07:23.948Z,11.90
2018-01-25T00:09:51.436Z,11.80
2018-01-25T00:12:19.608Z,11.80
2018-01-25T00:14:47.041Z,11.80
2018-01-25T00:17:14.489Z,11.80
2018-01-25T00:19:42.706Z,11.80
2018-01-25T00:22:10.141Z,11.80
2018-01-25T00:24:37.579Z,11.80
2018-01-25T00:27:05.028Z,11.80
2018-01-25T00:29:33.270Z,11.80
2018-01-25T00:32:00.718Z,11.80
2018-01-25T00:34:28.191Z,11.80
2018-01-25T00:36:55.614Z,11.80
2018-01-25T00:39:23.130Z,11.80
2018-01-25T00:41:51.324Z,11.80
2018-01-25T00:44:18.779Z,11.80
2018-01-25T00:46:46.213Z,11.80
2018-01-25T00:49:14.436Z,11.80
2018-01-25T00:51:41.869Z,11.80
2018-01-25T00:54:09.326Z,11.80
2018-01-25T00:56:36.771Z,11.80
2018-01-25T00:59:04.970Z,11.80
2018-01-25T01:01:32.423Z,11.70
2018-01-25T01:03:59.866Z,11.80
2018-01-25T01:06:28.085Z,11.70
2018-01-25T01:08:55.517Z,11.70
2018-01-25T01:11:22.974Z,11.80
2018-01-25T01:13:50.418Z,11.70
2018-01-25T01:16:17.856Z,11.70
2018-01-25T01:18:46.060Z,11.70
2018-01-25T01:21:13.514Z,11.70
2018-01-25T01:23:40.958Z,11.70
2018-01-25T01:26:08.411Z,11.70
2018-01-25T01:28:36.610Z,11.70
2018-01-25T01:31:04.072Z,11.70
2018-01-25T01:33:31.518Z,11.70
2018-01-25T01:35:58.987Z,11.70
2018-01-25T01:38:26.438Z,11.70
2018-01-25T01:40:53.894Z,11.70
2018-01-25T01:43:21.326Z,11.70
2018-01-25T01:45:49.542Z,11.70
2018-01-25T01:48:16.997Z,11.60
2018-01-25T01:50:44.448Z,11.70
2018-01-25T01:53:11.887Z,11.70
2018-01-25T01:55:39.337Z,11.60
2018-01-25T01:58:07.546Z,11.60
2018-01-25T02:00:35.003Z,11.60
2018-01-25T02:03:02.452Z,11.60
2018-01-25T02:05:29.915Z,11.60
2018-01-25T02:07:57.358Z,11.50
2018-01-25T02:10:24.823Z,11.50
2018-01-25T02:12:52.248Z,11.50
2018-01-25T02:15:20.446Z,11.40
2018-01-25T02:17:47.890Z,11.40
2018-01-25T02:20:15.324Z,11.40
2018-01-25T02:22:42.782Z,11.30
2018-01-25T02:25:10.223Z,11.30
2018-01-25T02:27:37.666Z,11.30
2018-01-25T02:30:05.160Z,11.30
2018-01-25T02:32:33.354Z,11.20
2018-01-25T02:35:00.785Z,11.20
2018-01-25T02:37:28.237Z,11.20
2018-01-25T02:39:55.677Z,11.20
2018-01-25T02:42:23.141Z,11.20
2018-01-25T02:44:50.586Z,11.20
2018-01-25T02:47:18.045Z,11.20
2018-01-25T02:49:45.490Z,11.20
2018-01-25T02:52:12.945Z,11.20
2018-01-25T02:54:40.382Z,11.20
2018-01-25T02:57:07.833Z,11.20
2018-01-25T02:59:35.260Z,11.20
2018-01-25T03:02:03.480Z,11.20
2018-01-25T03:04:30.926Z,11.20
2018-01-25T03:06:58.396Z,11.20
2018-01-25T03:09:25.834Z,11.20
2018-01-25T03:11:53.442Z,11.20
2018-01-25T03:14:20.898Z,11.20
2018-01-25T03:16:48.355Z,11.00
2018-01-25T03:19:15.794Z,10.90
2018-01-25T03:21:43.246Z,10.90
2018-01-25T03:24:10.699Z,10.90
2018-01-25T03:26:38.152Z,10.80
2018-01-25T03:29:05.576Z,10.70
2018-01-25T03:31:33.790Z,10.60
2018-01-25T03:34:01.227Z,10.60
2018-01-25T03:36:28.682Z,10.60
2018-01-25T03:38:56.118Z,10.60
2018-01-25T03:41:24.350Z,10.40
2018-01-25T03:43:51.791Z,10.40
2018-01-25T03:46:19.238Z,10.50
2018-01-25T03:48:46.695Z,10.50
2018-01-25T03:51:14.148Z,10.40
2018-01-25T03:53:41.606Z,10.40
2018-01-25T03:56:09.040Z,10.50
2018-01-25T03:58:37.279Z,10.50
2018-01-25T04:01:04.717Z,10.50
2018-01-25T04:03:32.179Z,10.50
2018-01-25T04:05:59.612Z,10.50
2018-01-25T04:08:27.057Z,10.50
2018-01-25T04:10:54.499Z,10.50
2018-01-25T04:13:22.718Z,10.50
2018-01-25T04:15:50.166Z,10.40
2018-01-25T04:18:17.615Z,10.50
2018-01-25T04:20:45.046Z,10.50
2018-01-25T04:23:13.272Z,10.50
2018-01-25T04:25:40.711Z,10.50
2018-01-25T04:28:08.170Z,10.50
2018-01-25T04:30:35.610Z,10.40
2018-01-25T04:33:03.054Z,10.40
2018-01-25T04:35:31.249Z,10.40
2018-01-25T04:37:58.702Z,10.40
2018-01-25T04:40:26.143Z,10.40
2018-01-25T04:42:54.358Z,10.40
2018-01-25T04:45:21.804Z,10.40
2018-01-25T04:47:49.265Z,10.40
2018-01-25T04:50:16.701Z,10.40
2018-01-25T04:52:44.149Z,10.40
2018-01-25T04:55:12.335Z,10.30
2018-01-25T04:57:39.808Z,10.30
2018-01-25T05:00:07.245Z,10.30
2018-01-25T05:02:34.685Z,10.30
2018-01-25T05:05:02.891Z,10.20
2018-01-25T05:07:30.353Z,10.20
2018-01-25T05:09:57.790Z,10.20
2018-01-25T05:12:25.230Z,10.20
2018-01-25T05:14:53.451Z,10.20
2018-01-25T05:17:26.512Z,10.20
2018-01-25T05:19:53.958Z,10.20
2018-01-25T05:22:22.171Z,10.10
2018-01-25T05:24:49.610Z,10.10
2018-01-25T05:27:17.077Z,10.10
2018-01-25T05:29:45.266Z,10.10
2018-01-25T05:32:12.711Z,10.10
2018-01-25T05:34:40.167Z,10.10
2018-01-25T05:37:07.617Z,10.10
2018-01-25T05:39:35.063Z,10.10
2018-01-25T05:42:02.504Z,10.10
2018-01-25T05:44:30.719Z,10.00
2018-01-25T05:46:58.171Z,10.10
2018-01-25T05:49:25.620Z,10.10
2018-01-25T05:51:53.059Z,10.00
2018-01-25T05:54:21.285Z,10.00
2018-01-25T05:56:48.726Z,10.00
2018-01-25T05:59:16.175Z,9.90
2018-01-25T06:01:43.615Z,9.90
2018-01-25T06:04:11.055Z,9.80
2018-01-25T06:06:39.265Z,9.70
2018-01-25T06:09:06.697Z,9.70
2018-01-25T06:11:34.129Z,9.70
2018-01-25T06:14:01.579Z,9.70
2018-01-25T06:16:29.015Z,9.70
2018-01-25T06:18:57.231Z,9.70
2018-01-25T06:21:25.432Z,9.70
2018-01-25T06:23:52.885Z,9.70
2018-01-25T06:26:20.318Z,9.70
2018-01-25T06:28:48.543Z,9.70
2018-01-25T06:31:15.974Z,9.70
2018-01-25T06:33:43.427Z,9.70
2018-01-25T06:36:10.888Z,9.70
2018-01-25T06:38:38.360Z,9.70
2018-01-25T06:41:05.780Z,9.70
2018-01-25T06:43:33.990Z,9.60
2018-01-25T06:46:01.460Z,9.60
2018-01-25T06:48:29.612Z,9.60
2018-01-25T06:50:57.025Z,9.60
2018-01-25T06:53:24.458Z,9.60
2018-01-25T06:55:51.907Z,9.60
2018-01-25T06:58:19.363Z,9.60
2018-01-25T07:00:46.786Z,9.60
2018-01-25T07:03:14.222Z,9.60
2018-01-25T07:05:42.500Z,9.60
2018-01-25T07:08:10.717Z,9.60
2018-01-25T07:10:38.158Z,9.50
2018-01-25T07:13:05.593Z,9.60
2018-01-25T07:15:33.808Z,9.60
2018-01-25T07:18:01.246Z,9.60
2018-01-25T07:20:28.700Z,9.50
2018-01-25T07:22:56.891Z,9.50
2018-01-25T07:25:24.330Z,9.50
2018-01-25T07:27:51.786Z,9.50
2018-01-25T07:30:19.199Z,9.60
2018-01-25T07:32:46.646Z,9.50
2018-01-25T07:35:14.098Z,9.60
2018-01-25T07:37:41.544Z,9.60
2018-01-25T07:40:08.989Z,9.60
2018-01-25T07:42:36.426Z,9.60
2018-01-25T07:45:04.630Z,9.60
2018-01-25T07:47:32.066Z,9.50
2018-01-25T07:49:59.568Z,9.60
2018-01-25T07:52:26.998Z,9.50
2018-01-25T07:54:54.442Z,9.60
2018-01-25T07:57:27.465Z,9.60
2018-01-25T07:59:54.906Z,9.50
2018-01-25T08:02:28.074Z,9.50
2018-01-25T08:04:55.509Z,9.50
2018-01-25T08:07:23.699Z,9.50
2018-01-25T08:09:51.142Z,9.50
2018-01-25T08:12:19.350Z,9.50
2018-01-25T08:14:46.783Z,9.50
2018-01-25T08:17:14.234Z,9.50
2018-01-25T08:19:41.653Z,9.50
2018-01-25T08:22:09.102Z,9.50
2018-01-25T08:24:36.542Z,9.50
2018-01-25T08:27:03.997Z,9.50
2018-01-25T08:29:31.439Z,9.50
2018-01-25T08:31:58.932Z,9.60
2018-01-25T08:34:26.348Z,9.60
2018-01-25T08:36:53.791Z,9.50
2018-01-25T08:39:22.022Z,9.50
2018-01-25T08:41:49.454Z,9.50
2018-01-25T08:44:16.873Z,9.60
2018-01-25T08:46:45.064Z,9.60
2018-01-25T08:49:12.493Z,9.60
2018-01-25T08:51:39.938Z,9.60
2018-01-25T08:54:07.379Z,9.50
2018-01-25T08:56:34.829Z,9.50
2018-01-25T08:59:02.275Z,9.50
2018-01-25T09:01:29.721Z,9.40
2018-01-25T09:03:57.165Z,9.40
2018-01-25T09:06:24.609Z,9.30
2018-01-25T09:08:52.820Z,9.30
2018-01-25T09:11:20.273Z,9.30
2018-01-25T09:13:47.721Z,9.20
2018-01-25T09:16:15.166Z,9.20
2018-01-25T09:18:42.598Z,9.20
2018-01-25T09:21:10.824Z,9.20
2018-01-25T09:23:38.244Z,9.10
2018-01-25T09:26:06.466Z,9.10
2018-01-25T09:28:33.908Z,9.10
2018-01-25T09:31:01.354Z,9.10
2018-01-25T09:33:28.781Z,9.10
2018-01-25T09:35:57.033Z,9.10
2018-01-25T09:38:24.413Z,9.10
2018-01-25T09:40:52.632Z,9.10
2018-01-25T09:43:20.091Z,9.10
2018-01-25T09:45:47.510Z,9.00
2018-01-25T09:48:15.721Z,9.00
2018-01-25T09:50:43.160Z,9.00
2018-01-25T09:53:10.611Z,9.00
2018-01-25T09:55:38.047Z,9.00
2018-01-25T09:58:06.254Z,9.00
2018-01-25T10:00:33.700Z,9.00
2018-01-25T10:03:01.184Z,9.00
2018-01-25T10:05:28.621Z,9.00
2018-01-25T10:07:56.070Z,9.00
2018-01-25T10:10:24.266Z,9.00
2018-01-25T10:12:51.707Z,9.00
2018-01-25T10:15:19.884Z,9.00
2018-01-25T10:17:48.936Z,9.00
2018-01-25T10:20:16.360Z,9.00
2018-01-25T10:22:43.814Z,9.00
2018-01-25T10:25:11.261Z,9.10
2018-01-25T10:27:38.697Z,9.10
2018-01-25T10:30:06.130Z,9.10
2018-01-25T10:32:33.571Z,9.10
2018-01-25T10:35:01.008Z,9.10
2018-01-25T10:37:28.459Z,9.10
2018-01-25T10:39:55.906Z,9.20
2018-01-25T10:42:23.354Z,9.20
2018-01-25T10:44:50.789Z,9.20
2018-01-25T10:47:19.004Z,9.20
2018-01-25T10:49:46.456Z,9.20
2018-01-25T10:52:13.917Z,9.20
2018-01-25T10:54:41.358Z,9.20
2018-01-25T10:57:08.811Z,9.20
2018-01-25T10:59:36.245Z,9.20
2018-01-25T11:02:10.145Z,9.20
2018-01-25T11:04:38.359Z,9.20
2018-01-25T11:07:05.811Z,9.20
2018-01-25T11:09:33.238Z,9.30
2018-01-25T11:12:01.464Z,9.20
2018-01-25T11:14:28.892Z,9.30
2018-01-25T11:16:56.316Z,9.20
2018-01-25T11:19:23.756Z,9.30
2018-01-25T11:21:51.185Z,9.30
2018-01-25T11:24:18.644Z,9.30
2018-01-25T11:26:46.083Z,9.30
2018-01-25T11:29:13.531Z,9.30
2018-01-25T11:31:40.983Z,9.40
2018-01-25T11:34:08.405Z,9.40
2018-01-25T11:36:35.862Z,9.40
2018-01-25T11:39:03.307Z,9.50
2018-01-25T11:41:30.742Z,9.50
2018-01-25T11:43:58.193Z,9.50
2018-01-25T11:46:25.631Z,9.50
2018-01-25T11:48:53.168Z,9.50
2018-01-25T11:51:20.716Z,9.50
2018-01-25T11:53:48.203Z,9.60
2018-01-25T11:56:16.409Z,9.60
2018-01-25T11:58:43.864Z,9.60
2018-01-25T12:01:11.304Z,9.60
2018-01-25T12:03:38.737Z,9.60
2018-01-25T12:06:07.008Z,9.60
2018-01-25T12:08:35.225Z,9.60
2018-01-25T12:11:02.663Z,9.60
2018-01-25T12:13:30.105Z,9.60
2018-01-25T12:15:58.313Z,9.60
2018-01-25T12:18:25.757Z,9.60
2018-01-25T12:20:53.190Z,9.60
2018-01-25T12:23:21.410Z,9.70
2018-01-25T12:25:48.832Z,9.70
2018-01-25T12:28:16.275Z,9.70
2018-01-25T12:30:44.485Z,9.70
2018-01-25T12:33:11.945Z,9.70
2018-01-25T12:35:39.372Z,9.70
2018-01-25T12:38:07.573Z,9.70
2018-01-25T12:40:35.006Z,9.70
2018-01-25T12:43:03.200Z,9.70
2018-01-25T12:45:30.657Z,9.70
2018-01-25T12:47:58.089Z,9.70
2018-01-25T12:50:26.306Z,9.70
2018-01-25T12:52:53.746Z,9.70
2018-01-25T12:55:21.187Z,9.70
2018-01-25T12:57:49.403Z,9.70
2018-01-25T13:00:16.836Z,9.70
2018-01-25T13:02:44.299Z,9.70
2018-01-25T13:05:11.743Z,9.70
2018-01-25T13:07:39.179Z,9.70
2018-01-25T13:10:07.397Z,9.70
2018-01-25T13:12:34.821Z,9.70
2018-01-25T13:15:02.261Z,9.70
2018-01-25T13:17:29.705Z,9.70
2018-01-25T13:19:57.152Z,9.70
2018-01-25T13:22:24.622Z,9.70
2018-01-25T13:24:52.075Z,9.70
2018-01-25T13:27:19.510Z,9.70
2018-01-25T13:29:46.952Z,9.70
2018-01-25T13:32:19.447Z,9.70
2018-01-25T13:34:46.887Z,9.70
2018-01-25T13:37:14.321Z,9.70
2018-01-25T13:39:41.766Z,9.70
2018-01-25T13:42:09.974Z,9.70
2018-01-25T13:44:37.432Z,9.70
2018-01-25T13:47:04.867Z,9.70
2018-01-25T13:49:32.306Z,9.70
2018-01-25T13:52:00.512Z,9.80
2018-01-25T13:54:27.964Z,9.80
2018-01-25T13:56:55.408Z,9.80
2018-01-25T13:59:22.862Z,9.80
2018-01-25T14:01:51.054Z,9.80
2018-01-25T14:04:18.503Z,9.80
2018-01-25T14:06:45.932Z,9.80
2018-01-25T14:09:13.372Z,9.80
2018-01-25T14:11:40.814Z,9.80
2018-01-25T14:14:08.262Z,9.80
2018-01-25T14:16:35.699Z,9.80
2018-01-25T14:19:03.130Z,9.70
2018-01-25T14:21:31.345Z,9.70
2018-01-25T14:23:58.770Z,9.70
2018-01-25T14:26:26.224Z,9.70
2018-01-25T14:28:54.424Z,9.80
2018-01-25T14:31:21.865Z,9.80
2018-01-25T14:33:49.347Z,9.80
2018-01-25T14:36:17.523Z,9.80
2018-01-25T14:38:44.966Z,9.80
2018-01-25T14:41:12.419Z,9.80
2018-01-25T14:43:39.856Z,9.80
2018-01-25T14:46:08.076Z,9.80
2018-01-25T14:48:35.517Z,9.70
2018-01-25T14:51:02.966Z,9.70
2018-01-25T14:53:30.406Z,9.80
2018-01-25T14:55:58.623Z,9.80
2018-01-25T14:58:26.058Z,9.70
2018-01-25T15:00:53.508Z,9.70
2018-01-25T15:03:20.951Z,9.80
2018-01-25T15:05:49.157Z,9.70
2018-01-25T15:08:16.589Z,9.70
2018-01-25T15:10:44.024Z,9.70
2018-01-25T15:13:12.233Z,9.70
2018-01-25T15:15:39.682Z,9.70
2018-01-25T15:18:07.309Z,9.70
2018-01-25T15:20:34.757Z,9.70
2018-01-25T15:23:02.199Z,9.70
2018-01-25T15:25:35.337Z,9.70
2018-01-25T15:28:03.527Z,9.70
2018-01-25T15:30:30.982Z,9.70
2018-01-25T15:32:58.418Z,9.70
2018-01-25T15:35:26.621Z,9.70
2018-01-25T15:37:54.055Z,9.70
2018-01-25T15:40:22.263Z,9.70
2018-01-25T15:42:49.712Z,9.70
2018-01-25T15:45:17.146Z,9.70
2018-01-25T15:47:45.355Z,9.70
2018-01-25T15:50:12.790Z,9.70
2018-01-25T15:52:40.233Z,9.70
2018-01-25T15:55:08.441Z,9.70
2018-01-25T15:57:35.902Z,9.70
2018-01-25T16:00:03.323Z,9.70
2018-01-25T16:02:30.764Z,9.70
2018-01-25T16:04:58.203Z,9.70
2018-01-25T16:07:25.646Z,9.70
2018-01-25T16:09:53.087Z,9.70
2018-01-25T16:12:20.526Z,9.60
2018-01-25T16:14:47.965Z,9.60
2018-01-25T16:17:15.403Z,9.60
2018-01-25T16:19:42.843Z,9.60
2018-01-25T16:22:10.294Z,9.50
2018-01-25T16:24:37.735Z,9.50
2018-01-25T16:27:05.183Z,9.50
2018-01-25T16:29:32.612Z,9.50
2018-01-25T16:32:00.062Z,9.50
2018-01-25T16:34:28.266Z,9.50
2018-01-25T16:36:55.713Z,9.50
2018-01-25T16:39:23.146Z,9.50
2018-01-25T16:41:51.362Z,9.50
2018-01-25T16:44:18.793Z,9.50
2018-01-25T16:46:46.247Z,9.50
2018-01-25T16:49:14.452Z,9.50
2018-01-25T16:51:41.903Z,9.40
2018-01-25T16:54:09.339Z,9.50
2018-01-25T16:56:36.789Z,9.50
2018-01-25T16:59:04.994Z,9.40
2018-01-25T17:01:32.443Z,9.40
2018-01-25T17:04:00.659Z,9.40
2018-01-25T17:06:28.086Z,9.40
2018-01-25T17:08:55.543Z,9.30
2018-01-25T17:11:22.983Z,9.30
2018-01-25T17:13:50.411Z,9.30
2018-01-25T17:16:18.664Z,9.30
2018-01-25T17:18:46.870Z,9.40
2018-01-25T17:21:15.084Z,9.40
2018-01-25T17:23:42.525Z,9.30
2018-01-25T17:26:09.958Z,9.30
2018-01-25T17:28:38.183Z,9.30
2018-01-25T17:31:05.627Z,9.30
2018-01-25T17:33:33.083Z,9.30
2018-01-25T17:36:00.516Z,9.30
2018-01-25T17:38:27.962Z,9.30
2018-01-25T17:40:56.157Z,9.30
2018-01-25T17:43:23.599Z,9.30
2018-01-25T17:45:51.800Z,9.30
2018-01-25T17:48:19.308Z,9.20
2018-01-25T17:50:46.691Z,9.30
2018-01-25T17:53:14.138Z,9.30
2018-01-25T17:55:41.582Z,9.30
2018-01-25T17:58:09.026Z,9.30
2018-01-25T18:00:36.467Z,9.20
2018-01-25T18:03:03.917Z,9.20
2018-01-25T18:05:31.352Z,9.20
2018-01-25T18:07:58.816Z,9.20
2018-01-25T18:10:26.247Z,9.30
2018-01-25T18:12:53.679Z,9.30
2018-01-25T18:15:21.122Z,9.20
2018-01-25T18:17:48.557Z,9.20
2018-01-25T18:20:16.770Z,9.20
2018-01-25T18:22:44.221Z,9.20
2018-01-25T18:25:11.654Z,9.20
2018-01-25T18:27:39.106Z,9.20
2018-01-25T18:30:06.536Z,9.20
2018-01-25T18:32:33.965Z,9.20
2018-01-25T18:35:02.183Z,9.20
2018-01-25T18:37:29.632Z,9.20
2018-01-25T18:39:57.090Z,9.20
2018-01-25T18:42:24.526Z,9.20
2018-01-25T18:44:51.976Z,9.20
2018-01-25T18:47:20.179Z,9.20
2018-01-25T18:49:47.622Z,9.20
2018-01-25T18:52:15.098Z,9.20
2018-01-25T18:54:42.545Z,9.20
2018-01-25T18:57:09.986Z,9.20
2018-01-25T18:59:37.498Z,9.20
2018-01-25T19:02:04.937Z,9.20
2018-01-25T19:04:32.385Z,9.10
2018-01-25T19:06:59.823Z,9.10
2018-01-25T19:09:27.273Z,9.10
2018-01-25T19:11:54.700Z,9.10
2018-01-25T19:14:22.150Z,9.10
2018-01-25T19:16:49.584Z,9.10
2018-01-25T19:19:17.043Z,9.10
2018-01-25T19:21:45.475Z,9.10
2018-01-25T19:24:13.700Z,9.10
2018-01-25T19:26:41.144Z,9.10
2018-01-25T19:29:08.592Z,9.10
2018-01-25T19:31:36.074Z,9.10
2018-01-25T19:34:03.514Z,9.10
2018-01-25T19:36:30.959Z,9.10
2018-01-25T19:38:58.392Z,9.10
2018-01-25T19:41:25.828Z,9.10
2018-01-25T19:43:53.290Z,9.00
2018-01-25T19:46:20.725Z,9.00
2018-01-25T19:48:48.166Z,9.00
2018-01-25T19:51:15.607Z,9.00
2018-01-25T19:53:43.055Z,8.90
2018-01-25T19:56:10.686Z,8.90
2018-01-25T19:58:38.886Z,8.90
2018-01-25T20:01:06.341Z,8.90
2018-01-25T20:03:33.774Z,8.90
2018-01-25T20:06:01.982Z,8.80
2018-01-25T20:08:29.430Z,8.80
2018-01-25T20:10:56.861Z,8.80
2018-01-25T20:13:24.293Z,8.70
2018-01-25T20:15:51.729Z,8.70
2018-01-25T20:18:19.167Z,8.70
2018-01-25T20:20:46.622Z,8.70
2018-01-25T20:23:14.062Z,8.70
2018-01-25T20:25:42.270Z,8.70
2018-01-25T20:28:09.725Z,8.60
2018-01-25T20:30:37.166Z,8.70
2018-01-25T20:33:04.601Z,8.70
2018-01-25T20:35:32.808Z,8.70
2018-01-25T20:38:00.255Z,8.70
2018-01-25T20:40:27.704Z,8.70
2018-01-25T20:42:55.143Z,8.70
2018-01-25T20:45:23.354Z,8.70
2018-01-25T20:47:50.766Z,8.70
2018-01-25T20:50:18.988Z,8.70
2018-01-25T20:52:46.433Z,8.70
2018-01-25T20:55:13.885Z,8.70
2018-01-25T20:57:41.320Z,8.70
2018-01-25T21:00:09.539Z,8.70
2018-01-25T21:02:36.992Z,8.70
2018-01-25T21:05:04.492Z,8.70
2018-01-25T21:07:31.929Z,8.70
2018-01-25T21:09:59.390Z,8.70
2018-01-25T21:12:26.829Z,8.70
2018-01-25T21:14:54.264Z,8.70
2018-01-25T21:17:21.880Z,8.70
2018-01-25T21:19:49.311Z,8.70
2018-01-25T21:22:17.520Z,8.60
2018-01-25T21:24:44.965Z,8.60
2018-01-25T21:27:12.405Z,8.60
2018-01-25T21:29:39.846Z,8.60
2018-01-25T21:32:07.284Z,8.60
2018-01-25T21:34:34.905Z,8.60
2018-01-25T21:37:02.500Z,8.60
2018-01-25T21:39:30.841Z,8.50
2018-01-25T21:41:58.486Z,8.50
2018-01-25T21:44:27.056Z,8.50
2018-01-25T21:46:54.690Z,8.50
2018-01-25T21:49:23.036Z,8.40
2018-01-25T21:51:50.737Z,8.40
2018-01-25T21:54:19.049Z,8.40
2018-01-25T21:56:46.636Z,8.40
2018-01-25T21:59:14.185Z,8.40
2018-01-25T22:01:41.869Z,8.40
2018-01-25T22:04:09.412Z,8.40
2018-01-25T22:06:37.070Z,8.40
2018-01-25T22:09:04.683Z,8.40
2018-01-25T22:11:32.356Z,8.30
2018-01-25T22:13:59.926Z,8.30
2018-01-25T22:16:27.543Z,8.30
2018-01-25T22:18:55.118Z,8.30
2018-01-25T22:21:23.411Z,8.30
2018-01-25T22:23:51.032Z,8.30
2018-01-25T22:26:18.563Z,8.30
2018-01-25T22:28:46.087Z,8.30
2018-01-25T22:31:13.650Z,8.30
2018-01-25T22:33:41.182Z,8.30
2018-01-25T22:36:09.386Z,8.30
2018-01-25T22:38:36.844Z,8.30
2018-01-25T22:41:04.283Z,8.30
2018-01-25T22:43:31.922Z,8.30
2018-01-25T22:45:59.351Z,8.30
2018-01-25T22:48:26.859Z,8.30
2018-01-25T22:50:55.070Z,8.30
2018-01-25T22:53:22.639Z,8.20
2018-01-25T22:55:50.125Z,8.20
2018-01-25T22:58:17.560Z,8.20
2018-01-25T23:00:45.006Z,8.20
2018-01-25T23:03:12.455Z,8.30
2018-01-25T23:05:39.900Z,8.20
2018-01-25T23:08:07.338Z,8.20
2018-01-25T23:10:34.781Z,8.20
2018-01-25T23:13:03.010Z,8.20
2018-01-25T23:15:30.788Z,8.20
2018-01-25T23:17:58.227Z,8.20
2018-01-25T23:20:25.668Z,8.20
2018-01-25T23:22:53.121Z,8.20
2018-01-25T23:25:20.558Z,8.10
2018-01-25T23:27:48.002Z,8.20
2018-01-25T23:30:16.200Z,8.10
2018-01-25T23:32:43.640Z,8.20
2018-01-25T23:35:11.086Z,8.20
2018-01-25T23:37:39.303Z,8.20
2018-01-25T23:40:06.741Z,8.20
2018-01-25T23:42:34.191Z,8.20
2018-01-25T23:45:01.620Z,8.20
2018-01-25T23:47:29.065Z,8.10
2018-01-25T23:49:56.500Z,8.10
2018-01-25T23:52:23.954Z,8.10
2018-01-25T23:54:51.385Z,8.10
2018-01-25T23:57:18.820Z,8.10
2018-01-25T23:59:47.021Z,8.10
